createdAt,value
2016-02-11T00:00:29.599Z,64.72
2016-02-11T00:01:29.633Z,64.9
2016-02-11T00:02:29.635Z,64.9
2016-02-11T00:03:29.670Z,64.9
2016-02-11T00:04:29.688Z,65.28
2016-02-11T00:05:29.691Z,65.09
2016-02-11T00:06:29.710Z,64.72
2016-02-11T00:07:29.729Z,65
2016-02-11T00:08:29.746Z,65.09
2016-02-11T00:09:29.765Z,65
2016-02-11T00:10:29.783Z,65.09
2016-02-11T00:11:29.802Z,65
2016-02-11T00:12:29.820Z,65.09
2016-02-11T00:13:29.823Z,64.9
2016-02-11T00:14:29.890Z,65.28
2016-02-11T00:15:29.861Z,64.81
2016-02-11T00:16:29.895Z,64.62
2016-02-11T00:17:29.899Z,65.09
2016-02-11T00:18:29.933Z,65.28
2016-02-11T00:19:29.951Z,64.34
2016-02-11T00:20:29.938Z,64.81
2016-02-11T00:21:29.973Z,64.24
2016-02-11T00:22:29.977Z,64.14
2016-02-11T00:23:30.010Z,64.34
2016-02-11T00:24:30.013Z,64.53
2016-02-11T00:25:30.033Z,64.43
2016-02-11T00:26:30.051Z,64.34
2016-02-11T00:27:30.070Z,64.14
2016-02-11T00:28:30.088Z,63.95
2016-02-11T00:29:30.106Z,64.53
2016-02-11T00:30:30.196Z,63.95
2016-02-11T00:31:30.146Z,64.05
2016-02-11T00:32:30.171Z,64.43
2016-02-11T00:33:30.164Z,64.14
2016-02-11T00:34:30.186Z,64.62
2016-02-11T00:35:30.214Z,64.34
2016-02-11T00:36:30.217Z,64.34
2016-02-11T00:37:30.234Z,64.53
2016-02-11T00:38:30.253Z,64.53
2016-02-11T00:39:30.273Z,64.62
2016-02-11T00:40:30.290Z,64.43
2016-02-11T00:41:30.309Z,63.76
2016-02-11T00:42:30.328Z,64.05
2016-02-11T00:43:30.347Z,64.24
2016-02-11T00:44:30.349Z,64.24
2016-02-11T00:45:30.368Z,64.24
2016-02-11T00:46:30.417Z,64.49
2016-02-11T00:47:30.405Z,64.59
2016-02-11T00:48:30.423Z,64.43
2016-02-11T00:49:30.426Z,64.59
2016-02-11T00:50:30.475Z,63.92
2016-02-11T00:51:30.479Z,63.95
2016-02-11T00:52:30.498Z,63.92
2016-02-11T00:53:30.501Z,63.95
2016-02-11T00:54:30.534Z,63.76
2016-02-11T00:55:30.538Z,64.59
2016-02-11T00:56:30.557Z,64.59
2016-02-11T00:57:30.574Z,63.73
2016-02-11T00:58:30.593Z,64.4
2016-02-11T00:59:30.628Z,64.11
2016-02-11T01:00:30.631Z,64.02
2016-02-11T01:01:30.666Z,64.21
2016-02-11T01:02:30.668Z,64.21
2016-02-11T01:03:30.686Z,64.21
2016-02-11T01:04:30.704Z,64.21
2016-02-11T01:05:30.711Z,64.21
2016-02-11T01:06:30.729Z,64.02
2016-02-11T01:07:30.763Z,63.73
2016-02-11T01:08:30.767Z,64.69
2016-02-11T01:09:30.785Z,64.49
2016-02-11T01:10:30.803Z,63.83
2016-02-11T01:11:30.837Z,63.83
2016-02-11T01:12:30.840Z,64.59
2016-02-11T01:13:30.858Z,64.11
2016-02-11T01:14:30.876Z,64.3
2016-02-11T01:15:30.879Z,64.4
2016-02-11T01:16:30.898Z,64.4
2016-02-11T01:17:30.917Z,64.49
2016-02-11T01:18:30.934Z,64.21
2016-02-11T01:19:30.953Z,63.92
2016-02-11T01:20:30.971Z,64.02
2016-02-11T01:21:30.990Z,63.92
2016-02-11T01:22:30.993Z,64.49
2016-02-11T01:23:31.027Z,64.49
2016-02-11T01:24:31.030Z,64.02
2016-02-11T01:25:31.052Z,64.11
2016-02-11T01:26:31.071Z,64.11
2016-02-11T01:27:31.089Z,63.83
2016-02-11T01:28:31.108Z,64.21
2016-02-11T01:29:31.125Z,64.11
2016-02-11T01:30:31.144Z,64.11
2016-02-11T01:31:31.163Z,64.02
2016-02-11T01:32:31.180Z,63.92
2016-02-11T01:33:31.187Z,64.4
2016-02-11T01:34:31.205Z,64.11
2016-02-11T01:35:31.223Z,64.21
2016-02-11T01:36:31.243Z,63.83
2016-02-11T01:37:31.262Z,63.73
2016-02-11T01:38:31.260Z,64.21
2016-02-11T01:39:31.294Z,64.21
2016-02-11T01:40:31.297Z,64.02
2016-02-11T01:41:31.316Z,64.02
2016-02-11T01:42:31.349Z,64.02
2016-02-11T01:43:31.352Z,63.92
2016-02-11T01:44:31.369Z,64.11
2016-02-11T01:45:31.389Z,64.11
2016-02-11T01:46:31.391Z,64.11
2016-02-11T01:47:31.410Z,64.02
2016-02-11T01:48:31.443Z,64.02
2016-02-11T01:49:31.462Z,64.59
2016-02-11T01:50:31.464Z,64.4
2016-02-11T01:51:31.483Z,64.3
2016-02-11T01:52:31.516Z,64.49
2016-02-11T01:53:31.519Z,64.21
2016-02-11T01:54:31.537Z,64.49
2016-02-11T01:55:31.556Z,64.4
2016-02-11T01:56:31.575Z,64.3
2016-02-11T01:57:31.594Z,64.4
2016-02-11T01:58:31.613Z,64.49
2016-02-11T01:59:31.615Z,64.4
2016-02-11T02:00:31.632Z,64.59
2016-02-11T02:01:31.667Z,63.92
2016-02-11T02:02:31.686Z,64.4
2016-02-11T02:03:31.689Z,64.02
2016-02-11T02:04:31.708Z,64.11
2016-02-11T02:05:31.725Z,64.69
2016-02-11T02:06:31.744Z,64.69
2016-02-11T02:07:31.747Z,63.83
2016-02-11T02:08:31.766Z,63.92
2016-02-11T02:09:31.783Z,64.11
2016-02-11T02:10:31.817Z,64.3
2016-02-11T02:11:31.819Z,64.4
2016-02-11T02:12:31.838Z,64.4
2016-02-11T02:13:31.856Z,64.49
2016-02-11T02:14:31.874Z,64.21
2016-02-11T02:15:31.893Z,64.4
2016-02-11T02:16:31.912Z,64.4
2016-02-11T02:17:31.930Z,64.49
2016-02-11T02:18:31.934Z,64.4
2016-02-11T02:19:31.952Z,64.49
2016-02-11T02:20:31.970Z,64.78
2016-02-11T02:21:31.988Z,64.3
2016-02-11T02:22:32.007Z,64.11
2016-02-11T02:23:32.041Z,64.4
2016-02-11T02:24:32.045Z,64.11
2016-02-11T02:25:32.078Z,64.69
2016-02-11T02:26:32.081Z,64.69
2016-02-11T02:27:32.100Z,64.59
2016-02-11T02:28:32.103Z,64.87
2016-02-11T02:29:32.137Z,64.87
2016-02-11T02:30:32.140Z,64.87
2016-02-11T02:31:32.173Z,64.87
2016-02-11T02:32:32.176Z,64.49
2016-02-11T02:33:32.195Z,65.16
2016-02-11T02:34:32.213Z,65.16
2016-02-11T02:35:32.231Z,65.06
2016-02-11T02:36:32.250Z,65.16
2016-02-11T02:37:32.252Z,64.4
2016-02-11T02:38:32.270Z,64.97
2016-02-11T02:39:32.305Z,64.59
2016-02-11T02:40:32.308Z,64.69
2016-02-11T02:41:32.325Z,64.87
2016-02-11T02:42:32.358Z,64.49
2016-02-11T02:43:32.361Z,65.25
2016-02-11T02:44:32.380Z,65.16
2016-02-11T02:45:32.383Z,64.87
2016-02-11T02:46:32.417Z,64.49
2016-02-11T02:47:32.420Z,64.11
2016-02-11T02:48:32.438Z,64.49
2016-02-11T02:49:32.457Z,64.11
2016-02-11T02:50:32.474Z,64.11
2016-02-11T02:51:32.493Z,64.4
2016-02-11T02:52:32.510Z,64.3
2016-02-11T02:53:32.529Z,64.3
2016-02-11T02:54:32.535Z,64.97
2016-02-11T02:55:32.555Z,64.3
2016-02-11T02:56:32.589Z,64.78
2016-02-11T02:57:32.622Z,64.3
2016-02-11T02:58:32.613Z,64.21
2016-02-11T02:59:32.631Z,64.69
2016-02-11T03:00:32.650Z,64.21
2016-02-11T03:01:32.653Z,64.69
2016-02-11T03:02:32.671Z,64.69
2016-02-11T03:03:32.705Z,64.4
2016-02-11T03:04:32.714Z,64.87
2016-02-11T03:05:32.764Z,64.87
2016-02-11T03:06:32.737Z,65.25
2016-02-11T03:07:32.755Z,65.16
2016-02-11T03:08:32.789Z,64.3
2016-02-11T03:09:32.807Z,65.25
2016-02-11T03:10:32.809Z,65.16
2016-02-11T03:11:32.828Z,65.35
2016-02-11T03:12:32.847Z,65.16
2016-02-11T03:13:32.864Z,64.78
2016-02-11T03:14:32.884Z,64.59
2016-02-11T03:15:32.886Z,65.06
2016-02-11T03:16:32.906Z,64.97
2016-02-11T03:17:32.928Z,65.06
2016-02-11T03:18:32.947Z,64.59
2016-02-11T03:19:32.949Z,64.78
2016-02-11T03:20:32.968Z,65.06
2016-02-11T03:21:33.002Z,64.97
2016-02-11T03:22:33.006Z,64.78
2016-02-11T03:23:33.023Z,65.16
2016-02-11T03:24:33.060Z,65.16
2016-02-11T03:25:33.047Z,65.16
2016-02-11T03:26:33.097Z,65.16
2016-02-11T03:27:33.084Z,65.16
2016-02-11T03:28:33.104Z,64.59
2016-02-11T03:29:33.121Z,64.78
2016-02-11T03:30:33.140Z,64.97
2016-02-11T03:31:33.157Z,65.06
2016-02-11T03:32:33.176Z,64.97
2016-02-11T03:33:33.195Z,64.4
2016-02-11T03:34:33.213Z,64.87
2016-02-11T03:35:33.231Z,64.97
2016-02-11T03:36:33.265Z,64.59
2016-02-11T03:37:33.254Z,65.16
2016-02-11T03:38:33.272Z,65.16
2016-02-11T03:39:33.290Z,65.06
2016-02-11T03:40:33.307Z,64.59
2016-02-11T03:41:33.326Z,64.3
2016-02-11T03:42:33.346Z,65.16
2016-02-11T03:43:33.363Z,64.49
2016-02-11T03:44:33.366Z,65.16
2016-02-11T03:45:33.384Z,64.78
2016-02-11T03:46:33.403Z,64.97
2016-02-11T03:47:33.421Z,65.16
2016-02-11T03:48:33.440Z,65.16
2016-02-11T03:49:33.473Z,65.16
2016-02-11T03:50:33.476Z,64.49
2016-02-11T03:51:33.494Z,65.16
2016-02-11T03:52:33.512Z,65.16
2016-02-11T03:53:33.515Z,64.49
2016-02-11T03:54:33.534Z,65.35
2016-02-11T03:55:33.561Z,65.25
2016-02-11T03:56:33.564Z,65.35
2016-02-11T03:57:33.582Z,65.35
2016-02-11T03:58:33.602Z,64.3
2016-02-11T03:59:33.619Z,64.21
2016-02-11T04:00:33.638Z,64.3
2016-02-11T04:01:33.655Z,64.49
2016-02-11T04:02:33.691Z,63.73
2016-02-11T04:03:33.693Z,64.11
2016-02-11T04:04:33.711Z,64.08
2016-02-11T04:05:33.714Z,63.79
2016-02-11T04:06:33.733Z,64.56
2016-02-11T04:07:33.751Z,64.27
2016-02-11T04:08:33.771Z,64.3
2016-02-11T04:09:33.789Z,64.46
2016-02-11T04:10:33.807Z,63.92
2016-02-11T04:11:33.825Z,63.89
2016-02-11T04:12:33.828Z,63.98
2016-02-11T04:13:33.849Z,63.89
2016-02-11T04:14:33.867Z,64.08
2016-02-11T04:15:33.885Z,63.89
2016-02-11T04:16:33.903Z,64.46
2016-02-11T04:17:33.921Z,64.08
2016-02-11T04:18:33.940Z,63.89
2016-02-11T04:19:33.958Z,63.89
2016-02-11T04:20:33.977Z,64.08
2016-02-11T04:21:33.979Z,64.17
2016-02-11T04:22:33.999Z,64.27
2016-02-11T04:23:34.017Z,64.17
2016-02-11T04:24:34.035Z,64.27
2016-02-11T04:25:34.038Z,63.98
2016-02-11T04:26:34.072Z,63.79
2016-02-11T04:27:34.079Z,63.89
2016-02-11T04:28:34.098Z,63.98
2016-02-11T04:29:34.116Z,63.7
2016-02-11T04:30:34.134Z,63.79
2016-02-11T04:31:34.137Z,63.89
2016-02-11T04:32:34.155Z,63.6
2016-02-11T04:33:34.189Z,64.08
2016-02-11T04:34:34.208Z,64.27
2016-02-11T04:35:34.226Z,64.27
2016-02-11T04:36:34.229Z,63.98
2016-02-11T04:37:34.247Z,64.56
2016-02-11T04:38:34.264Z,64.46
2016-02-11T04:39:34.286Z,64.27
2016-02-11T04:40:34.289Z,64.08
2016-02-11T04:41:34.306Z,64.37
2016-02-11T04:42:34.341Z,63.98
2016-02-11T04:43:34.343Z,64.37
2016-02-11T04:44:34.361Z,64.27
2016-02-11T04:45:34.380Z,64.37
2016-02-11T04:46:34.399Z,64.65
2016-02-11T04:47:34.402Z,64.56
2016-02-11T04:48:34.421Z,64.17
2016-02-11T04:49:34.455Z,64.37
2016-02-11T04:50:34.473Z,64.75
2016-02-11T04:51:34.476Z,64.94
2016-02-11T04:52:34.478Z,64.94
2016-02-11T04:53:34.512Z,64.37
2016-02-11T04:54:34.515Z,65.31
2016-02-11T04:55:34.534Z,64.75
2016-02-11T04:56:34.552Z,64.94
2016-02-11T04:57:34.575Z,65.03
2016-02-11T04:58:34.593Z,64.65
2016-02-11T04:59:34.598Z,64.84
2016-02-11T05:00:34.616Z,64.75
2016-02-11T05:01:34.635Z,64.94
2016-02-11T05:02:34.652Z,64.84
2016-02-11T05:03:34.671Z,64.75
2016-02-11T05:04:34.893Z,64.94
2016-02-11T05:05:34.709Z,64.75
2016-02-11T05:06:34.727Z,64.75
2016-02-11T05:07:34.731Z,64.84
2016-02-11T05:08:34.749Z,64.65
2016-02-11T05:09:34.767Z,64.94
2016-02-11T05:10:34.786Z,64.94
2016-02-11T05:11:34.804Z,64.75
2016-02-11T05:12:34.822Z,65.41
2016-02-11T05:13:34.825Z,65.41
2016-02-11T05:14:34.843Z,65.41
2016-02-11T05:15:34.862Z,65.03
2016-02-11T05:16:34.896Z,65.03
2016-02-11T05:17:34.899Z,64.75
2016-02-11T05:18:34.916Z,65.31
2016-02-11T05:19:34.935Z,65.22
2016-02-11T05:20:34.937Z,65.03
2016-02-11T05:21:34.956Z,65.22
2016-02-11T05:22:34.974Z,65.22
2016-02-11T05:23:34.993Z,65.31
2016-02-11T05:24:35.010Z,65.22
2016-02-11T05:25:35.024Z,65.12
2016-02-11T05:26:35.042Z,65.03
2016-02-11T05:27:35.060Z,65.22
2016-02-11T05:28:35.078Z,65.31
2016-02-11T05:29:35.081Z,65.31
2016-02-11T05:30:35.114Z,65.22
2016-02-11T05:31:35.117Z,65.5
2016-02-11T05:32:35.137Z,65.6
2016-02-11T05:33:35.155Z,65.5
2016-02-11T05:34:35.173Z,65.5
2016-02-11T05:35:35.193Z,64.94
2016-02-11T05:36:35.210Z,65.5
2016-02-11T05:37:35.228Z,65.5
2016-02-11T05:38:35.231Z,65.12
2016-02-11T05:39:35.249Z,65.6
2016-02-11T05:40:35.284Z,65.6
2016-02-11T05:41:35.288Z,65.31
2016-02-11T05:42:35.290Z,65.22
2016-02-11T05:43:35.323Z,65.31
2016-02-11T05:44:35.326Z,65.6
2016-02-11T05:45:35.360Z,65.31
2016-02-11T05:46:35.363Z,65.12
2016-02-11T05:47:35.381Z,65.22
2016-02-11T05:48:35.399Z,64.84
2016-02-11T05:49:35.419Z,64.94
2016-02-11T05:50:35.422Z,65.22
2016-02-11T05:51:35.440Z,65.22
2016-02-11T05:52:35.458Z,65.03
2016-02-11T05:53:35.477Z,65.41
2016-02-11T05:54:35.499Z,65.12
2016-02-11T05:55:35.502Z,64.65
2016-02-11T05:56:35.521Z,65.6
2016-02-11T05:57:35.540Z,65.5
2016-02-11T05:58:35.559Z,65.5
2016-02-11T05:59:35.562Z,65.41
2016-02-11T06:00:35.581Z,65.03
2016-02-11T06:01:35.599Z,65.31
2016-02-11T06:02:35.617Z,65.12
2016-02-11T06:03:35.635Z,65.31
2016-02-11T06:04:35.653Z,65.41
2016-02-11T06:05:35.672Z,65.03
2016-02-11T06:06:35.677Z,65.5
2016-02-11T06:07:35.710Z,64.94
2016-02-11T06:08:35.557Z,65.41
2016-02-11T06:09:35.732Z,65.41
2016-02-11T06:10:35.750Z,65.5
2016-02-11T06:11:35.756Z,64.75
2016-02-11T06:12:35.760Z,65.41
2016-02-11T06:13:35.764Z,65.31
2016-02-11T06:14:35.753Z,65.12
2016-02-11T06:15:35.759Z,64.94
2016-02-11T06:16:35.773Z,65.6
2016-02-11T06:17:35.785Z,65.31
2016-02-11T06:18:35.800Z,65.31
2016-02-11T06:19:35.813Z,65.5
2016-02-11T06:20:35.826Z,65.31
2016-02-11T06:21:35.827Z,65.22
2016-02-11T06:22:35.844Z,65.79
2016-02-11T06:23:35.859Z,65.5
2016-02-11T06:24:35.876Z,65.79
2016-02-11T06:25:35.878Z,65.41
2016-02-11T06:26:35.897Z,65.31
2016-02-11T06:27:35.915Z,65.12
2016-02-11T06:28:35.933Z,65.31
2016-02-11T06:29:35.949Z,65.41
2016-02-11T06:30:35.968Z,65.41
2016-02-11T06:31:35.987Z,65.41
2016-02-11T06:32:35.989Z,65.5
2016-02-11T06:33:36.006Z,65.6
2016-02-11T06:34:36.040Z,65.5
2016-02-11T06:35:36.045Z,65.6
2016-02-11T06:36:36.063Z,65.22
2016-02-11T06:37:36.081Z,65.5
2016-02-11T06:38:36.099Z,65.5
2016-02-11T06:39:36.117Z,65.41
2016-02-11T06:40:36.137Z,65.69
2016-02-11T06:41:36.139Z,65.41
2016-02-11T06:42:36.157Z,65.22
2016-02-11T06:43:36.161Z,65.41
2016-02-11T06:44:36.195Z,65.41
2016-02-11T06:45:36.198Z,65.41
2016-02-11T06:46:36.216Z,65.41
2016-02-11T06:47:36.235Z,65.6
2016-02-11T06:48:36.253Z,65.41
2016-02-11T06:49:36.271Z,65.22
2016-02-11T06:50:36.291Z,65.41
2016-02-11T06:51:36.294Z,65.41
2016-02-11T06:52:36.312Z,65.31
2016-02-11T06:53:36.362Z,65.41
2016-02-11T06:54:36.340Z,65.41
2016-02-11T06:55:36.373Z,65.41
2016-02-11T06:56:36.375Z,65.69
2016-02-11T06:57:36.394Z,65.41
2016-02-11T06:58:36.412Z,65.79
2016-02-11T06:59:36.431Z,65.69
2016-02-11T07:00:36.450Z,65.79
2016-02-11T07:01:36.469Z,65.79
2016-02-11T07:02:36.488Z,65.5
2016-02-11T07:03:36.490Z,65.6
2016-02-11T07:04:36.524Z,65.69
2016-02-11T07:05:36.527Z,65.79
2016-02-11T07:06:36.544Z,65.98
2016-02-11T07:07:36.391Z,65.98
2016-02-11T07:08:36.598Z,65.98
2016-02-11T07:09:36.586Z,65.88
2016-02-11T07:10:36.603Z,65.88
2016-02-11T07:11:36.622Z,65.79
2016-02-11T07:12:36.640Z,65.69
2016-02-11T07:13:36.659Z,65.88
2016-02-11T07:14:36.677Z,65.69
2016-02-11T07:15:36.680Z,65.6
2016-02-11T07:16:36.697Z,65.5
2016-02-11T07:17:36.716Z,65.69
2016-02-11T07:18:36.750Z,65.41
2016-02-11T07:19:36.752Z,65.98
2016-02-11T07:20:36.771Z,65.79
2016-02-11T07:21:36.805Z,65.5
2016-02-11T07:22:36.793Z,65.5
2016-02-11T07:23:36.816Z,66.27
2016-02-11T07:24:36.834Z,65.5
2016-02-11T07:25:36.852Z,65.88
2016-02-11T07:26:36.855Z,65.88
2016-02-11T07:27:36.873Z,65.79
2016-02-11T07:28:36.891Z,65.98
2016-02-11T07:29:36.910Z,66.27
2016-02-11T07:30:36.928Z,66.27
2016-02-11T07:31:36.946Z,66.55
2016-02-11T07:32:36.965Z,66.27
2016-02-11T07:33:36.984Z,66.55
2016-02-11T07:34:37.001Z,66.36
2016-02-11T07:35:37.004Z,66.46
2016-02-11T07:36:37.039Z,66.36
2016-02-11T07:37:37.041Z,66.55
2016-02-11T07:38:37.059Z,66.46
2016-02-11T07:39:37.078Z,66.74
2016-02-11T07:40:37.095Z,66.55
2016-02-11T07:41:37.098Z,66.55
2016-02-11T07:42:37.118Z,66.93
2016-02-11T07:43:37.136Z,66.46
2016-02-11T07:44:37.170Z,66.46
2016-02-11T07:45:37.163Z,66.55
2016-02-11T07:46:37.181Z,66.55
2016-02-11T07:47:37.215Z,66.36
2016-02-11T07:48:37.234Z,66.36
2016-02-11T07:49:37.237Z,66.36
2016-02-11T07:50:37.254Z,66.27
2016-02-11T07:51:37.272Z,66.3
2016-02-11T07:52:37.275Z,66.77
2016-02-11T07:53:37.294Z,66.36
2016-02-11T07:54:37.314Z,66.17
2016-02-11T07:55:37.336Z,66.39
2016-02-11T07:56:37.341Z,66.77
2016-02-11T07:57:37.359Z,66.17
2016-02-11T07:58:37.378Z,66.96
2016-02-11T07:59:37.395Z,66.17
2016-02-11T08:00:37.398Z,66.3
2016-02-11T08:01:37.432Z,66.01
2016-02-11T08:02:37.452Z,66.49
2016-02-11T08:03:37.454Z,65.73
2016-02-11T08:04:37.473Z,65.82
2016-02-11T08:05:37.491Z,66.01
2016-02-11T08:06:37.509Z,65.25
2016-02-11T08:07:37.511Z,65.35
2016-02-11T08:08:37.546Z,65.44
2016-02-11T08:09:37.548Z,65.25
2016-02-11T08:10:37.567Z,65.44
2016-02-11T08:11:37.587Z,65.35
2016-02-11T08:12:37.604Z,65.44
2016-02-11T08:13:37.622Z,65.63
2016-02-11T08:14:37.625Z,65.82
2016-02-11T08:15:37.644Z,65.73
2016-02-11T08:16:37.678Z,65.44
2016-02-11T08:17:37.680Z,65.25
2016-02-11T08:18:37.698Z,65.54
2016-02-11T08:19:37.718Z,65.44
2016-02-11T08:20:37.736Z,65.63
2016-02-11T08:21:37.755Z,65.82
2016-02-11T08:22:37.773Z,65.44
2016-02-11T08:23:37.775Z,65.25
2016-02-11T08:24:37.794Z,65.06
2016-02-11T08:25:37.812Z,64.78
2016-02-11T08:26:37.834Z,65.16
2016-02-11T08:27:37.851Z,64.78
2016-02-11T08:28:37.870Z,64.78
2016-02-11T08:29:37.889Z,65.06
2016-02-11T08:30:37.891Z,65.35
2016-02-11T08:31:37.909Z,64.3
2016-02-11T08:32:37.943Z,64.59
2016-02-11T08:33:37.946Z,64.11
2016-02-11T08:34:37.964Z,64.02
2016-02-11T08:35:37.983Z,64.11
2016-02-11T08:36:37.985Z,64.49
2016-02-11T08:37:38.019Z,64.3
2016-02-11T08:38:38.023Z,64.3
2016-02-11T08:39:38.041Z,64.3
2016-02-11T08:40:38.058Z,64.21
2016-02-11T08:41:38.077Z,64.3
2016-02-11T08:42:38.095Z,63.92
2016-02-11T08:43:38.114Z,63.73
2016-02-11T08:44:37.976Z,64.3
2016-02-11T08:45:38.135Z,63.92
2016-02-11T08:46:38.168Z,63.92
2016-02-11T08:47:38.171Z,64.02
2016-02-11T08:48:38.190Z,63.67
2016-02-11T08:49:38.208Z,63.92
2016-02-11T08:50:38.227Z,64.05
2016-02-11T08:51:38.229Z,63.86
2016-02-11T08:52:38.263Z,64.14
2016-02-11T08:53:38.282Z,63.95
2016-02-11T08:54:38.299Z,63.67
2016-02-11T08:55:38.301Z,63.39
2016-02-11T08:56:38.322Z,63.57
2016-02-11T08:57:38.346Z,63.29
2016-02-11T08:58:38.365Z,63.57
2016-02-11T08:59:38.384Z,63.86
2016-02-11T09:00:38.387Z,63.1
2016-02-11T09:01:38.405Z,63.48
2016-02-11T09:02:38.424Z,63.39
2016-02-11T09:03:38.441Z,63.29
2016-02-11T09:04:38.462Z,63.29
2016-02-11T09:05:38.464Z,62.91
2016-02-11T09:06:38.498Z,62.91
2016-02-11T09:07:38.500Z,62.91
2016-02-11T09:08:38.535Z,62.81
2016-02-11T09:09:38.553Z,63.2
2016-02-11T09:10:38.556Z,62.53
2016-02-11T09:11:38.574Z,62.72
2016-02-11T09:12:38.592Z,62.91
2016-02-11T09:13:38.611Z,63.2
2016-02-11T09:14:38.631Z,62.81
2016-02-11T09:15:38.649Z,62.81
2016-02-11T09:16:38.667Z,62.72
2016-02-11T09:17:38.670Z,62.24
2016-02-11T09:18:38.689Z,62.53
2016-02-11T09:19:38.706Z,62.24
2016-02-11T09:20:38.729Z,62.43
2016-02-11T09:21:38.732Z,62.34
2016-02-11T09:22:38.750Z,62.62
2016-02-11T09:23:38.784Z,62.72
2016-02-11T09:24:38.802Z,61.87
2016-02-11T09:25:38.804Z,61.87
2016-02-11T09:26:38.824Z,61.68
2016-02-11T09:27:38.857Z,61.77
2016-02-11T09:28:38.860Z,60.72
2016-02-11T09:29:38.881Z,60.91
2016-02-11T09:30:38.891Z,60.25
2016-02-11T09:31:38.909Z,59.96
2016-02-11T09:32:38.929Z,59.39
2016-02-11T09:33:38.947Z,58.83
2016-02-11T09:34:38.965Z,59.01
2016-02-11T09:35:38.968Z,59.11
2016-02-11T09:36:39.001Z,58.83
2016-02-11T09:37:39.003Z,59.01
2016-02-11T09:38:39.023Z,59.05
2016-02-11T09:39:39.056Z,59.33
2016-02-11T09:40:39.059Z,59.52
2016-02-11T09:41:39.078Z,59.33
2016-02-11T09:42:39.095Z,58.66
2016-02-11T09:43:39.114Z,58.85
2016-02-11T09:44:39.179Z,58.92
2016-02-11T09:45:39.150Z,58.85
2016-02-11T09:46:39.153Z,58.66
2016-02-11T09:47:39.189Z,58.09
2016-02-11T09:48:39.191Z,58.28
2016-02-11T09:49:39.210Z,58.66
2016-02-11T09:50:39.245Z,58.66
2016-02-11T09:51:39.248Z,58.47
2016-02-11T09:52:39.266Z,58.57
2016-02-11T09:53:39.284Z,58.57
2016-02-11T09:54:39.302Z,58
2016-02-11T09:55:39.305Z,58.47
2016-02-11T09:56:39.339Z,58.47
2016-02-11T09:57:39.358Z,58
2016-02-11T09:58:39.377Z,57.71
2016-02-11T09:59:39.379Z,57.52
2016-02-11T10:00:39.397Z,57.9
2016-02-11T10:01:39.417Z,58
2016-02-11T10:02:39.435Z,57.81
2016-02-11T10:03:39.470Z,57.43
2016-02-11T10:04:39.504Z,56.95
2016-02-11T10:05:39.490Z,56.95
2016-02-11T10:06:39.509Z,57.04
2016-02-11T10:07:39.527Z,57.14
2016-02-11T10:08:39.546Z,57.24
2016-02-11T10:09:39.548Z,57.04
2016-02-11T10:10:39.581Z,57.04
2016-02-11T10:11:39.585Z,57.33
2016-02-11T10:12:39.619Z,57.43
2016-02-11T10:13:39.622Z,57.33
2016-02-11T10:14:39.656Z,57.52
2016-02-11T10:15:39.675Z,57.52
2016-02-11T10:16:39.678Z,57.9
2016-02-11T10:17:39.712Z,57.24
2016-02-11T10:18:39.714Z,57.81
2016-02-11T10:19:39.731Z,57.52
2016-02-11T10:20:39.782Z,57.43
2016-02-11T10:21:39.769Z,57.14
2016-02-11T10:22:39.787Z,57.14
2016-02-11T10:23:39.806Z,56.85
2016-02-11T10:24:39.824Z,57.14
2016-02-11T10:25:39.827Z,57.14
2016-02-11T10:26:39.845Z,57.04
2016-02-11T10:27:39.878Z,57.04
2016-02-11T10:28:39.881Z,57.04
2016-02-11T10:29:39.916Z,57.24
2016-02-11T10:30:39.919Z,56.85
2016-02-11T10:31:39.937Z,57.24
2016-02-11T10:32:39.972Z,57.04
2016-02-11T10:33:39.975Z,56.95
2016-02-11T10:34:40.010Z,56.95
2016-02-11T10:35:40.014Z,56.95
2016-02-11T10:36:40.032Z,56.48
2016-02-11T10:37:40.050Z,56.67
2016-02-11T10:38:40.069Z,56.29
2016-02-11T10:39:40.072Z,56.85
2016-02-11T10:40:40.120Z,56.67
2016-02-11T10:41:40.109Z,56.76
2016-02-11T10:42:40.126Z,56.1
2016-02-11T10:43:40.146Z,56.57
2016-02-11T10:44:40.179Z,56.19
2016-02-11T10:45:40.198Z,56.29
2016-02-11T10:46:40.201Z,56.76
2016-02-11T10:47:40.219Z,56.57
2016-02-11T10:48:40.237Z,56.95
2016-02-11T10:49:40.256Z,56.67
2016-02-11T10:50:40.290Z,56.85
2016-02-11T10:51:40.293Z,56.57
2016-02-11T10:52:40.297Z,56.67
2016-02-11T10:53:40.332Z,56.67
2016-02-11T10:54:40.334Z,56.85
2016-02-11T10:55:40.368Z,56.95
2016-02-11T10:56:40.371Z,56.95
2016-02-11T10:57:40.391Z,57.04
2016-02-11T10:58:40.425Z,56.76
2016-02-11T10:59:40.428Z,57.24
2016-02-11T11:00:40.447Z,57.62
2016-02-11T11:01:40.465Z,57.62
2016-02-11T11:02:40.486Z,57.62
2016-02-11T11:03:40.504Z,57.71
2016-02-11T11:04:40.554Z,57.43
2016-02-11T11:05:40.525Z,57.62
2016-02-11T11:06:40.559Z,57.81
2016-02-11T11:07:40.562Z,58
2016-02-11T11:08:40.596Z,57.9
2016-02-11T11:09:40.598Z,57.33
2016-02-11T11:10:40.632Z,58
2016-02-11T11:11:40.635Z,57.9
2016-02-11T11:12:40.669Z,57.74
2016-02-11T11:13:40.672Z,57.71
2016-02-11T11:14:40.690Z,57.81
2016-02-11T11:15:40.708Z,57.9
2016-02-11T11:16:40.727Z,57.52
2016-02-11T11:17:40.746Z,57.33
2016-02-11T11:18:40.763Z,57.71
2016-02-11T11:19:40.782Z,58
2016-02-11T11:20:40.801Z,57.62
2016-02-11T11:21:40.819Z,57.43
2016-02-11T11:22:40.837Z,57.62
2016-02-11T11:23:40.856Z,57.52
2016-02-11T11:24:40.859Z,57.71
2016-02-11T11:25:40.893Z,57.84
2016-02-11T11:26:40.908Z,58.4
2016-02-11T11:27:40.926Z,57.9
2016-02-11T11:28:40.944Z,57.84
2016-02-11T11:29:40.962Z,57.26
2016-02-11T11:30:40.981Z,57.74
2016-02-11T11:31:40.999Z,57.45
2016-02-11T11:32:41.018Z,58.03
2016-02-11T11:33:41.036Z,57.45
2016-02-11T11:34:41.051Z,57.45
2016-02-11T11:35:41.070Z,57.84
2016-02-11T11:36:41.088Z,57.84
2016-02-11T11:37:41.105Z,57.93
2016-02-11T11:38:41.109Z,57.84
2016-02-11T11:39:41.158Z,58.03
2016-02-11T11:40:41.146Z,57.93
2016-02-11T11:41:41.163Z,57.45
2016-02-11T11:42:41.198Z,57.26
2016-02-11T11:43:41.201Z,57.36
2016-02-11T11:44:41.236Z,57.45
2016-02-11T11:45:41.238Z,57.07
2016-02-11T11:46:41.272Z,57.65
2016-02-11T11:47:41.275Z,57.45
2016-02-11T11:48:41.308Z,57.36
2016-02-11T11:49:41.311Z,57.07
2016-02-11T11:50:41.340Z,57.26
2016-02-11T11:51:41.203Z,57.07
2016-02-11T11:52:41.361Z,57.65
2016-02-11T11:53:41.400Z,57.65
2016-02-11T11:54:41.246Z,57.65
2016-02-11T11:55:41.265Z,57.55
2016-02-11T11:56:41.283Z,57.65
2016-02-11T11:57:41.450Z,57.74
2016-02-11T11:58:41.898Z,57.45
2016-02-11T11:59:41.606Z,57.74
2016-02-11T12:00:41.514Z,56.88
2016-02-11T12:01:41.548Z,57.17
2016-02-11T12:02:41.536Z,57.26
2016-02-11T12:03:41.570Z,57.26
2016-02-11T12:04:41.588Z,56.6
2016-02-11T12:05:41.622Z,56.7
2016-02-11T12:06:41.655Z,57.39
2016-02-11T12:07:41.627Z,57.2
2016-02-11T12:08:41.661Z,57.29
2016-02-11T12:09:41.680Z,57.01
2016-02-11T12:10:41.698Z,57.2
2016-02-11T12:11:41.716Z,56.92
2016-02-11T12:12:41.719Z,57.2
2016-02-11T12:13:41.752Z,57.01
2016-02-11T12:14:41.771Z,56.63
2016-02-11T12:15:41.790Z,56.15
2016-02-11T12:16:41.808Z,56.24
2016-02-11T12:17:41.811Z,56.34
2016-02-11T12:18:41.844Z,56.05
2016-02-11T12:19:41.847Z,56.63
2016-02-11T12:20:41.881Z,56.15
2016-02-11T12:21:41.884Z,56.15
2016-02-11T12:22:41.903Z,56.15
2016-02-11T12:23:41.938Z,55.58
2016-02-11T12:24:41.940Z,56.15
2016-02-11T12:25:41.975Z,55.96
2016-02-11T12:26:41.992Z,56.15
2016-02-11T12:27:41.997Z,56.15
2016-02-11T12:28:42.017Z,56.05
2016-02-11T12:29:42.036Z,55.7
2016-02-11T12:30:42.069Z,55.99
2016-02-11T12:31:42.078Z,55.7
2016-02-11T12:32:42.081Z,55.13
2016-02-11T12:33:42.115Z,54.85
2016-02-11T12:34:42.133Z,54.85
2016-02-11T12:35:42.151Z,55.22
2016-02-11T12:36:42.169Z,54.85
2016-02-11T12:37:42.174Z,55.22
2016-02-11T12:38:42.208Z,55.22
2016-02-11T12:39:42.227Z,55.13
2016-02-11T12:40:42.244Z,54.75
2016-02-11T12:41:42.263Z,54.75
2016-02-11T12:42:42.266Z,55.32
2016-02-11T12:43:42.299Z,54.94
2016-02-11T12:44:42.318Z,55.04
2016-02-11T12:45:42.336Z,55.22
2016-02-11T12:46:42.339Z,55.22
2016-02-11T12:47:42.374Z,55.13
2016-02-11T12:48:42.377Z,54.85
2016-02-11T12:49:42.411Z,54.66
2016-02-11T12:50:42.428Z,54.94
2016-02-11T12:51:42.447Z,55.32
2016-02-11T12:52:42.465Z,54.75
2016-02-11T12:53:42.483Z,55.04
2016-02-11T12:54:42.502Z,55.04
2016-02-11T12:55:42.521Z,54.85
2016-02-11T12:56:42.539Z,55.42